sensor_id;sensor_type;location;lat;lon;timestamp;P1;durP1;ratioP1;P2;durP2;ratioP2
23745;SDS011;12053;48.878;9.632;2023-12-20T00:00:22;3.03;;;2.40;;
23745;SDS011;12053;48.878;9.632;2023-12-20T00:02:50;2.00;;;1.80;;
23745;SDS011;12053;48.878;9.632;2023-12-20T00:05:17;2.05;;;1.70;;
23745;SDS011;12053;48.878;9.632;2023-12-20T00:07:44;2.42;;;2.00;;
23745;SDS011;12053;48.878;9.632;2023-12-20T00:10:12;2.53;;;1.90;;
23745;SDS011;12053;48.878;9.632;2023-12-20T00:12:39;2.15;;;1.88;;
23745;SDS011;12053;48.878;9.632;2023-12-20T00:15:07;3.33;;;2.05;;
23745;SDS011;12053;48.878;9.632;2023-12-20T00:17:34;2.40;;;1.80;;
23745;SDS011;12053;48.878;9.632;2023-12-20T00:20:02;2.13;;;1.92;;
23745;SDS011;12053;48.878;9.632;2023-12-20T00:22:29;3.13;;;1.83;;
23745;SDS011;12053;48.878;9.632;2023-12-20T00:24:56;3.42;;;2.10;;
23745;SDS011;12053;48.878;9.632;2023-12-20T00:27:23;2.10;;;1.85;;
23745;SDS011;12053;48.878;9.632;2023-12-20T00:29:50;2.75;;;1.77;;
23745;SDS011;12053;48.878;9.632;2023-12-20T00:32:18;2.17;;;1.92;;
23745;SDS011;12053;48.878;9.632;2023-12-20T00:34:45;1.67;;;1.58;;
23745;SDS011;12053;48.878;9.632;2023-12-20T00:37:13;1.98;;;1.70;;
23745;SDS011;12053;48.878;9.632;2023-12-20T00:39:40;3.08;;;2.00;;
23745;SDS011;12053;48.878;9.632;2023-12-20T00:42:07;2.28;;;2.00;;
23745;SDS011;12053;48.878;9.632;2023-12-20T00:44:34;3.42;;;1.98;;
23745;SDS011;12053;48.878;9.632;2023-12-20T00:47:02;4.05;;;2.10;;
23745;SDS011;12053;48.878;9.632;2023-12-20T00:49:29;3.25;;;1.90;;
23745;SDS011;12053;48.878;9.632;2023-12-20T00:51:56;2.15;;;1.83;;
23745;SDS011;12053;48.878;9.632;2023-12-20T00:54:23;2.30;;;1.92;;
23745;SDS011;12053;48.878;9.632;2023-12-20T00:56:51;2.22;;;1.80;;
23745;SDS011;12053;48.878;9.632;2023-12-20T00:59:18;3.45;;;2.15;;
23745;SDS011;12053;48.878;9.632;2023-12-20T01:01:46;2.95;;;1.92;;
23745;SDS011;12053;48.878;9.632;2023-12-20T01:04:13;2.50;;;2.17;;
23745;SDS011;12053;48.878;9.632;2023-12-20T01:06:40;2.58;;;1.90;;
23745;SDS011;12053;48.878;9.632;2023-12-20T01:09:08;2.30;;;2.10;;
23745;SDS011;12053;48.878;9.632;2023-12-20T01:11:35;1.88;;;1.75;;
23745;SDS011;12053;48.878;9.632;2023-12-20T01:14:02;2.00;;;1.80;;
23745;SDS011;12053;48.878;9.632;2023-12-20T01:16:29;3.03;;;1.88;;
23745;SDS011;12053;48.878;9.632;2023-12-20T01:18:56;2.30;;;1.98;;
23745;SDS011;12053;48.878;9.632;2023-12-20T01:21:23;2.45;;;2.17;;
23745;SDS011;12053;48.878;9.632;2023-12-20T01:23:51;2.60;;;2.15;;
23745;SDS011;12053;48.878;9.632;2023-12-20T01:26:18;3.42;;;1.77;;
23745;SDS011;12053;48.878;9.632;2023-12-20T01:28:45;2.50;;;2.03;;
23745;SDS011;12053;48.878;9.632;2023-12-20T01:31:12;2.60;;;2.08;;
23745;SDS011;12053;48.878;9.632;2023-12-20T01:33:40;2.78;;;2.35;;
23745;SDS011;12053;48.878;9.632;2023-12-20T01:36:07;2.53;;;1.80;;
23745;SDS011;12053;48.878;9.632;2023-12-20T01:38:34;3.53;;;2.42;;
23745;SDS011;12053;48.878;9.632;2023-12-20T01:41:01;3.40;;;2.35;;
23745;SDS011;12053;48.878;9.632;2023-12-20T01:43:29;2.30;;;2.00;;
23745;SDS011;12053;48.878;9.632;2023-12-20T01:46:05;2.90;;;2.35;;
23745;SDS011;12053;48.878;9.632;2023-12-20T01:48:33;2.45;;;2.25;;
23745;SDS011;12053;48.878;9.632;2023-12-20T01:51:00;3.90;;;2.63;;
23745;SDS011;12053;48.878;9.632;2023-12-20T01:53:27;2.70;;;2.45;;
23745;SDS011;12053;48.878;9.632;2023-12-20T01:55:55;3.25;;;2.80;;
23745;SDS011;12053;48.878;9.632;2023-12-20T01:58:23;3.30;;;3.00;;
23745;SDS011;12053;48.878;9.632;2023-12-20T02:00:50;2.55;;;2.28;;
23745;SDS011;12053;48.878;9.632;2023-12-20T02:03:18;4.43;;;2.97;;
23745;SDS011;12053;48.878;9.632;2023-12-20T02:05:45;6.38;;;3.35;;
23745;SDS011;12053;48.878;9.632;2023-12-20T02:08:14;3.17;;;2.88;;
23745;SDS011;12053;48.878;9.632;2023-12-20T02:10:41;4.00;;;3.17;;
23745;SDS011;12053;48.878;9.632;2023-12-20T02:13:08;3.38;;;3.08;;
23745;SDS011;12053;48.878;9.632;2023-12-20T02:15:36;3.33;;;3.03;;
23745;SDS011;12053;48.878;9.632;2023-12-20T02:18:04;4.25;;;3.03;;
23745;SDS011;12053;48.878;9.632;2023-12-20T02:20:31;2.95;;;2.65;;
23745;SDS011;12053;48.878;9.632;2023-12-20T02:22:58;3.97;;;3.10;;
23745;SDS011;12053;48.878;9.632;2023-12-20T02:25:26;4.75;;;3.30;;
23745;SDS011;12053;48.878;9.632;2023-12-20T02:27:53;3.78;;;2.97;;
23745;SDS011;12053;48.878;9.632;2023-12-20T02:30:20;3.33;;;3.03;;
23745;SDS011;12053;48.878;9.632;2023-12-20T02:32:48;3.78;;;3.05;;
23745;SDS011;12053;48.878;9.632;2023-12-20T02:35:16;3.67;;;3.17;;
23745;SDS011;12053;48.878;9.632;2023-12-20T02:37:43;3.53;;;3.08;;
23745;SDS011;12053;48.878;9.632;2023-12-20T02:40:11;4.30;;;3.33;;
23745;SDS011;12053;48.878;9.632;2023-12-20T02:42:38;3.60;;;3.08;;
23745;SDS011;12053;48.878;9.632;2023-12-20T02:45:05;3.75;;;3.38;;
23745;SDS011;12053;48.878;9.632;2023-12-20T02:47:33;3.05;;;2.63;;
23745;SDS011;12053;48.878;9.632;2023-12-20T02:50:00;4.63;;;3.58;;
23745;SDS011;12053;48.878;9.632;2023-12-20T02:52:28;3.67;;;3.38;;
23745;SDS011;12053;48.878;9.632;2023-12-20T02:54:56;3.45;;;2.90;;
23745;SDS011;12053;48.878;9.632;2023-12-20T02:57:23;3.92;;;3.53;;
23745;SDS011;12053;48.878;9.632;2023-12-20T02:59:50;3.22;;;2.92;;
23745;SDS011;12053;48.878;9.632;2023-12-20T03:02:17;4.05;;;3.65;;
23745;SDS011;12053;48.878;9.632;2023-12-20T03:04:44;3.08;;;2.40;;
23745;SDS011;12053;48.878;9.632;2023-12-20T03:07:12;4.00;;;3.50;;
23745;SDS011;12053;48.878;9.632;2023-12-20T03:09:39;6.65;;;3.78;;
23745;SDS011;12053;48.878;9.632;2023-12-20T03:12:26;3.70;;;3.25;;
23745;SDS011;12053;48.878;9.632;2023-12-20T03:14:53;4.32;;;3.58;;
23745;SDS011;12053;48.878;9.632;2023-12-20T03:17:21;4.68;;;3.80;;
23745;SDS011;12053;48.878;9.632;2023-12-20T03:19:48;3.22;;;2.92;;
23745;SDS011;12053;48.878;9.632;2023-12-20T03:22:15;4.07;;;3.55;;
23745;SDS011;12053;48.878;9.632;2023-12-20T03:24:43;4.25;;;3.50;;
23745;SDS011;12053;48.878;9.632;2023-12-20T03:27:10;4.90;;;3.13;;
23745;SDS011;12053;48.878;9.632;2023-12-20T03:29:37;4.88;;;3.08;;
23745;SDS011;12053;48.878;9.632;2023-12-20T03:32:04;2.67;;;2.17;;
23745;SDS011;12053;48.878;9.632;2023-12-20T03:34:31;2.90;;;2.38;;
23745;SDS011;12053;48.878;9.632;2023-12-20T03:36:59;4.53;;;2.95;;
23745;SDS011;12053;48.878;9.632;2023-12-20T03:39:26;3.38;;;2.05;;
23745;SDS011;12053;48.878;9.632;2023-12-20T03:41:53;3.03;;;2.72;;
23745;SDS011;12053;48.878;9.632;2023-12-20T03:44:20;2.40;;;2.20;;
23745;SDS011;12053;48.878;9.632;2023-12-20T03:46:48;3.25;;;1.80;;
23745;SDS011;12053;48.878;9.632;2023-12-20T03:49:15;5.18;;;2.30;;
23745;SDS011;12053;48.878;9.632;2023-12-20T03:51:42;2.38;;;2.17;;
23745;SDS011;12053;48.878;9.632;2023-12-20T03:54:10;2.10;;;1.90;;
23745;SDS011;12053;48.878;9.632;2023-12-20T03:56:37;2.47;;;2.15;;
23745;SDS011;12053;48.878;9.632;2023-12-20T03:59:04;2.28;;;2.08;;
23745;SDS011;12053;48.878;9.632;2023-12-20T04:01:31;1.88;;;1.65;;
23745;SDS011;12053;48.878;9.632;2023-12-20T04:03:58;2.05;;;1.85;;
23745;SDS011;12053;48.878;9.632;2023-12-20T04:06:26;1.35;;;1.25;;
23745;SDS011;12053;48.878;9.632;2023-12-20T04:08:53;2.25;;;1.80;;
23745;SDS011;12053;48.878;9.632;2023-12-20T04:11:20;1.95;;;1.42;;
23745;SDS011;12053;48.878;9.632;2023-12-20T04:13:47;1.60;;;1.50;;
23745;SDS011;12053;48.878;9.632;2023-12-20T04:16:14;2.42;;;1.50;;
23745;SDS011;12053;48.878;9.632;2023-12-20T04:18:42;1.52;;;1.42;;
23745;SDS011;12053;48.878;9.632;2023-12-20T04:21:09;1.88;;;1.45;;
23745;SDS011;12053;48.878;9.632;2023-12-20T04:23:36;3.60;;;2.47;;
23745;SDS011;12053;48.878;9.632;2023-12-20T04:26:03;1.08;;;0.98;;
23745;SDS011;12053;48.878;9.632;2023-12-20T04:28:31;0.90;;;0.90;;
23745;SDS011;12053;48.878;9.632;2023-12-20T04:30:58;1.27;;;1.17;;
23745;SDS011;12053;48.878;9.632;2023-12-20T04:33:25;0.80;;;0.80;;
23745;SDS011;12053;48.878;9.632;2023-12-20T04:35:52;0.75;;;0.75;;
23745;SDS011;12053;48.878;9.632;2023-12-20T04:38:20;0.60;;;0.60;;
23745;SDS011;12053;48.878;9.632;2023-12-20T04:40:47;1.40;;;1.20;;
23745;SDS011;12053;48.878;9.632;2023-12-20T04:43:14;1.50;;;1.08;;
23745;SDS011;12053;48.878;9.632;2023-12-20T04:45:41;0.80;;;0.80;;
23745;SDS011;12053;48.878;9.632;2023-12-20T04:48:08;1.10;;;1.00;;
23745;SDS011;12053;48.878;9.632;2023-12-20T04:50:36;0.90;;;0.90;;
23745;SDS011;12053;48.878;9.632;2023-12-20T04:53:03;2.13;;;1.30;;
23745;SDS011;12053;48.878;9.632;2023-12-20T04:55:30;0.88;;;0.88;;
23745;SDS011;12053;48.878;9.632;2023-12-20T04:57:57;2.08;;;1.15;;
23745;SDS011;12053;48.878;9.632;2023-12-20T05:00:25;1.83;;;1.50;;
23745;SDS011;12053;48.878;9.632;2023-12-20T05:02:52;1.65;;;1.55;;
23745;SDS011;12053;48.878;9.632;2023-12-20T05:05:20;1.70;;;1.60;;
23745;SDS011;12053;48.878;9.632;2023-12-20T05:07:48;2.08;;;1.88;;
23745;SDS011;12053;48.878;9.632;2023-12-20T05:10:15;2.50;;;2.10;;
23745;SDS011;12053;48.878;9.632;2023-12-20T05:12:43;2.08;;;1.98;;
23745;SDS011;12053;48.878;9.632;2023-12-20T05:15:10;3.15;;;2.00;;
23745;SDS011;12053;48.878;9.632;2023-12-20T05:17:37;2.30;;;2.08;;
23745;SDS011;12053;48.878;9.632;2023-12-20T05:20:05;4.05;;;2.30;;
23745;SDS011;12053;48.878;9.632;2023-12-20T05:22:32;2.67;;;2.47;;
23745;SDS011;12053;48.878;9.632;2023-12-20T05:24:59;2.65;;;2.45;;
23745;SDS011;12053;48.878;9.632;2023-12-20T05:27:27;3.38;;;3.08;;
23745;SDS011;12053;48.878;9.632;2023-12-20T05:29:54;3.45;;;3.10;;
23745;SDS011;12053;48.878;9.632;2023-12-20T05:32:24;3.95;;;3.42;;
23745;SDS011;12053;48.878;9.632;2023-12-20T05:34:51;3.40;;;3.10;;
23745;SDS011;12053;48.878;9.632;2023-12-20T05:37:19;5.00;;;3.78;;
23745;SDS011;12053;48.878;9.632;2023-12-20T05:39:46;4.05;;;3.40;;
23745;SDS011;12053;48.878;9.632;2023-12-20T05:42:13;4.30;;;3.85;;
23745;SDS011;12053;48.878;9.632;2023-12-20T05:44:40;3.47;;;3.17;;
23745;SDS011;12053;48.878;9.632;2023-12-20T05:47:08;4.07;;;3.67;;
23745;SDS011;12053;48.878;9.632;2023-12-20T05:49:35;3.42;;;3.13;;
23745;SDS011;12053;48.878;9.632;2023-12-20T05:52:03;3.17;;;2.97;;
23745;SDS011;12053;48.878;9.632;2023-12-20T05:54:30;3.55;;;3.25;;
23745;SDS011;12053;48.878;9.632;2023-12-20T05:56:57;3.40;;;3.10;;
23745;SDS011;12053;48.878;9.632;2023-12-20T05:59:24;3.88;;;3.50;;
23745;SDS011;12053;48.878;9.632;2023-12-20T06:01:51;3.78;;;3.38;;
23745;SDS011;12053;48.878;9.632;2023-12-20T06:04:19;3.80;;;3.50;;
23745;SDS011;12053;48.878;9.632;2023-12-20T06:06:48;3.40;;;3.00;;
23745;SDS011;12053;48.878;9.632;2023-12-20T06:09:16;3.47;;;3.17;;
23745;SDS011;12053;48.878;9.632;2023-12-20T06:11:43;3.22;;;2.92;;
23745;SDS011;12053;48.878;9.632;2023-12-20T06:14:10;2.90;;;2.70;;
23745;SDS011;12053;48.878;9.632;2023-12-20T06:16:37;3.90;;;3.50;;
23745;SDS011;12053;48.878;9.632;2023-12-20T06:19:04;3.45;;;3.15;;
23745;SDS011;12053;48.878;9.632;2023-12-20T06:21:32;4.22;;;3.83;;
23745;SDS011;12053;48.878;9.632;2023-12-20T06:23:59;5.13;;;3.60;;
23745;SDS011;12053;48.878;9.632;2023-12-20T06:26:26;3.78;;;3.47;;
23745;SDS011;12053;48.878;9.632;2023-12-20T06:28:54;4.75;;;4.18;;
23745;SDS011;12053;48.878;9.632;2023-12-20T06:31:21;4.75;;;4.25;;
23745;SDS011;12053;48.878;9.632;2023-12-20T06:33:48;5.25;;;3.58;;
23745;SDS011;12053;48.878;9.632;2023-12-20T06:36:23;4.05;;;3.65;;
23745;SDS011;12053;48.878;9.632;2023-12-20T06:38:51;6.40;;;5.22;;
23745;SDS011;12053;48.878;9.632;2023-12-20T06:41:18;5.20;;;4.70;;
23745;SDS011;12053;48.878;9.632;2023-12-20T06:43:45;5.40;;;4.90;;
23745;SDS011;12053;48.878;9.632;2023-12-20T06:46:16;6.88;;;6.10;;
23745;SDS011;12053;48.878;9.632;2023-12-20T06:48:44;5.68;;;5.00;;
23745;SDS011;12053;48.878;9.632;2023-12-20T06:51:15;5.18;;;4.55;;
23745;SDS011;12053;48.878;9.632;2023-12-20T06:53:43;6.57;;;5.57;;
23745;SDS011;12053;48.878;9.632;2023-12-20T06:56:10;7.68;;;5.45;;
23745;SDS011;12053;48.878;9.632;2023-12-20T07:01:13;6.93;;;5.72;;
23745;SDS011;12053;48.878;9.632;2023-12-20T07:03:41;9.60;;;6.78;;
23745;SDS011;12053;48.878;9.632;2023-12-20T07:06:08;7.78;;;6.63;;
23745;SDS011;12053;48.878;9.632;2023-12-20T07:08:36;9.52;;;8.02;;
23745;SDS011;12053;48.878;9.632;2023-12-20T07:11:03;10.38;;;7.90;;
23745;SDS011;12053;48.878;9.632;2023-12-20T07:13:30;14.63;;;7.20;;
23745;SDS011;12053;48.878;9.632;2023-12-20T07:15:57;9.27;;;7.20;;
23745;SDS011;12053;48.878;9.632;2023-12-20T07:18:25;24.42;;;9.50;;
23745;SDS011;12053;48.878;9.632;2023-12-20T07:20:52;16.25;;;10.18;;
23745;SDS011;12053;48.878;9.632;2023-12-20T07:23:20;12.82;;;9.98;;
23745;SDS011;12053;48.878;9.632;2023-12-20T07:25:47;14.45;;;10.73;;
23745;SDS011;12053;48.878;9.632;2023-12-20T07:28:15;12.75;;;6.72;;
23745;SDS011;12053;48.878;9.632;2023-12-20T07:30:42;23.35;;;11.57;;
23745;SDS011;12053;48.878;9.632;2023-12-20T07:33:09;33.28;;;11.45;;
23745;SDS011;12053;48.878;9.632;2023-12-20T07:35:38;16.17;;;11.13;;
23745;SDS011;12053;48.878;9.632;2023-12-20T07:38:06;12.32;;;10.00;;
23745;SDS011;12053;48.878;9.632;2023-12-20T07:40:33;12.02;;;9.32;;
23745;SDS011;12053;48.878;9.632;2023-12-20T07:43:00;14.25;;;9.70;;
23745;SDS011;12053;48.878;9.632;2023-12-20T07:45:27;15.18;;;11.55;;
23745;SDS011;12053;48.878;9.632;2023-12-20T07:47:54;17.05;;;12.50;;
23745;SDS011;12053;48.878;9.632;2023-12-20T07:50:22;21.60;;;12.35;;
23745;SDS011;12053;48.878;9.632;2023-12-20T07:52:49;15.07;;;11.48;;
23745;SDS011;12053;48.878;9.632;2023-12-20T07:55:16;24.20;;;11.30;;
23745;SDS011;12053;48.878;9.632;2023-12-20T07:57:44;24.08;;;12.75;;
23745;SDS011;12053;48.878;9.632;2023-12-20T08:00:11;15.45;;;11.02;;
23745;SDS011;12053;48.878;9.632;2023-12-20T08:02:39;16.80;;;13.25;;
23745;SDS011;12053;48.878;9.632;2023-12-20T08:05:06;16.17;;;12.13;;
23745;SDS011;12053;48.878;9.632;2023-12-20T08:07:33;11.35;;;5.78;;
23745;SDS011;12053;48.878;9.632;2023-12-20T08:10:00;15.27;;;10.35;;
23745;SDS011;12053;48.878;9.632;2023-12-20T08:12:28;14.00;;;11.40;;
23745;SDS011;12053;48.878;9.632;2023-12-20T08:14:56;15.43;;;11.70;;
23745;SDS011;12053;48.878;9.632;2023-12-20T08:17:23;15.43;;;11.07;;
23745;SDS011;12053;48.878;9.632;2023-12-20T08:19:51;16.15;;;10.63;;
23745;SDS011;12053;48.878;9.632;2023-12-20T08:22:18;14.25;;;11.13;;
23745;SDS011;12053;48.878;9.632;2023-12-20T08:24:45;15.57;;;11.57;;
23745;SDS011;12053;48.878;9.632;2023-12-20T08:27:12;14.63;;;9.38;;
23745;SDS011;12053;48.878;9.632;2023-12-20T08:29:40;15.40;;;10.25;;
23745;SDS011;12053;48.878;9.632;2023-12-20T08:32:07;16.95;;;11.20;;
23745;SDS011;12053;48.878;9.632;2023-12-20T08:34:36;13.80;;;10.20;;
23745;SDS011;12053;48.878;9.632;2023-12-20T08:37:04;11.43;;;8.77;;
23745;SDS011;12053;48.878;9.632;2023-12-20T08:39:31;15.05;;;10.30;;
23745;SDS011;12053;48.878;9.632;2023-12-20T08:41:59;13.98;;;11.50;;
23745;SDS011;12053;48.878;9.632;2023-12-20T08:44:26;12.43;;;10.70;;
23745;SDS011;12053;48.878;9.632;2023-12-20T08:46:54;10.55;;;8.57;;
23745;SDS011;12053;48.878;9.632;2023-12-20T08:49:23;12.38;;;8.00;;
23745;SDS011;12053;48.878;9.632;2023-12-20T08:51:52;12.05;;;9.70;;
23745;SDS011;12053;48.878;9.632;2023-12-20T08:54:19;7.90;;;6.47;;
23745;SDS011;12053;48.878;9.632;2023-12-20T08:56:46;8.68;;;6.70;;
23745;SDS011;12053;48.878;9.632;2023-12-20T08:59:13;12.70;;;8.38;;
23745;SDS011;12053;48.878;9.632;2023-12-20T09:01:40;11.52;;;9.82;;
23745;SDS011;12053;48.878;9.632;2023-12-20T09:04:08;13.38;;;10.65;;
23745;SDS011;12053;48.878;9.632;2023-12-20T09:06:35;10.15;;;8.02;;
23745;SDS011;12053;48.878;9.632;2023-12-20T09:09:02;10.90;;;8.88;;
23745;SDS011;12053;48.878;9.632;2023-12-20T09:11:30;11.52;;;8.73;;
23745;SDS011;12053;48.878;9.632;2023-12-20T09:13:57;11.63;;;7.63;;
23745;SDS011;12053;48.878;9.632;2023-12-20T09:16:25;10.18;;;7.43;;
23745;SDS011;12053;48.878;9.632;2023-12-20T09:18:52;10.75;;;6.60;;
23745;SDS011;12053;48.878;9.632;2023-12-20T09:21:36;8.48;;;6.63;;
23745;SDS011;12053;48.878;9.632;2023-12-20T09:24:18;9.43;;;6.32;;
23745;SDS011;12053;48.878;9.632;2023-12-20T09:26:45;12.15;;;7.63;;
23745;SDS011;12053;48.878;9.632;2023-12-20T09:29:13;9.07;;;6.50;;
23745;SDS011;12053;48.878;9.632;2023-12-20T09:31:41;8.00;;;4.97;;
23745;SDS011;12053;48.878;9.632;2023-12-20T09:34:10;4.70;;;3.45;;
23745;SDS011;12053;48.878;9.632;2023-12-20T09:36:37;5.35;;;4.25;;
23745;SDS011;12053;48.878;9.632;2023-12-20T09:39:08;5.28;;;3.33;;
23745;SDS011;12053;48.878;9.632;2023-12-20T09:41:36;7.38;;;4.05;;
23745;SDS011;12053;48.878;9.632;2023-12-20T09:44:04;4.25;;;3.83;;
23745;SDS011;12053;48.878;9.632;2023-12-20T09:46:32;7.10;;;3.15;;
23745;SDS011;12053;48.878;9.632;2023-12-20T09:49:00;6.10;;;3.50;;
23745;SDS011;12053;48.878;9.632;2023-12-20T09:51:28;4.88;;;3.17;;
23745;SDS011;12053;48.878;9.632;2023-12-20T09:53:55;6.72;;;3.50;;
23745;SDS011;12053;48.878;9.632;2023-12-20T09:56:23;5.68;;;3.78;;
23745;SDS011;12053;48.878;9.632;2023-12-20T09:58:51;5.63;;;3.08;;
23745;SDS011;12053;48.878;9.632;2023-12-20T10:01:20;4.57;;;3.08;;
23745;SDS011;12053;48.878;9.632;2023-12-20T10:03:48;4.97;;;2.78;;
23745;SDS011;12053;48.878;9.632;2023-12-20T10:06:17;5.13;;;3.20;;
23745;SDS011;12053;48.878;9.632;2023-12-20T10:08:45;4.40;;;2.92;;
23745;SDS011;12053;48.878;9.632;2023-12-20T10:11:12;6.72;;;2.83;;
23745;SDS011;12053;48.878;9.632;2023-12-20T10:13:40;5.97;;;3.58;;
23745;SDS011;12053;48.878;9.632;2023-12-20T10:16:07;6.35;;;2.38;;
23745;SDS011;12053;48.878;9.632;2023-12-20T10:18:35;5.13;;;3.00;;
23745;SDS011;12053;48.878;9.632;2023-12-20T10:21:05;6.47;;;3.30;;
23745;SDS011;12053;48.878;9.632;2023-12-20T10:23:36;5.63;;;3.05;;
23745;SDS011;12053;48.878;9.632;2023-12-20T10:26:05;5.25;;;2.17;;
23745;SDS011;12053;48.878;9.632;2023-12-20T10:28:33;3.53;;;2.35;;
23745;SDS011;12053;48.878;9.632;2023-12-20T10:31:01;3.95;;;2.20;;
23745;SDS011;12053;48.878;9.632;2023-12-20T10:33:29;5.43;;;1.85;;
23745;SDS011;12053;48.878;9.632;2023-12-20T10:35:59;4.03;;;2.10;;
23745;SDS011;12053;48.878;9.632;2023-12-20T10:38:26;6.00;;;2.42;;
23745;SDS011;12053;48.878;9.632;2023-12-20T10:40:56;5.30;;;2.05;;
23745;SDS011;12053;48.878;9.632;2023-12-20T10:43:25;4.03;;;1.63;;
23745;SDS011;12053;48.878;9.632;2023-12-20T10:45:53;4.70;;;2.50;;
23745;SDS011;12053;48.878;9.632;2023-12-20T10:48:21;2.92;;;1.90;;
23745;SDS011;12053;48.878;9.632;2023-12-20T10:53:20;6.60;;;2.10;;
23745;SDS011;12053;48.878;9.632;2023-12-20T10:55:48;7.25;;;1.80;;
23745;SDS011;12053;48.878;9.632;2023-12-20T10:58:16;7.75;;;2.30;;
23745;SDS011;12053;48.878;9.632;2023-12-20T11:00:46;8.77;;;2.28;;
23745;SDS011;12053;48.878;9.632;2023-12-20T11:03:14;2.88;;;1.40;;
23745;SDS011;12053;48.878;9.632;2023-12-20T11:05:44;3.80;;;1.73;;
23745;SDS011;12053;48.878;9.632;2023-12-20T11:08:26;5.43;;;1.70;;
23745;SDS011;12053;48.878;9.632;2023-12-20T11:10:59;6.13;;;2.10;;
23745;SDS011;12053;48.878;9.632;2023-12-20T11:13:34;9.90;;;1.85;;
23745;SDS011;12053;48.878;9.632;2023-12-20T11:16:02;7.22;;;1.70;;
23745;SDS011;12053;48.878;9.632;2023-12-20T11:18:30;3.60;;;1.45;;
23745;SDS011;12053;48.878;9.632;2023-12-20T11:21:01;6.57;;;2.10;;
23745;SDS011;12053;48.878;9.632;2023-12-20T11:23:30;3.00;;;1.52;;
23745;SDS011;12053;48.878;9.632;2023-12-20T11:25:59;6.22;;;2.05;;
23745;SDS011;12053;48.878;9.632;2023-12-20T11:28:26;4.70;;;1.50;;
23745;SDS011;12053;48.878;9.632;2023-12-20T11:30:56;4.10;;;1.80;;
23745;SDS011;12053;48.878;9.632;2023-12-20T11:33:38;9.48;;;1.55;;
23745;SDS011;12053;48.878;9.632;2023-12-20T11:36:13;7.00;;;2.05;;
23745;SDS011;12053;48.878;9.632;2023-12-20T11:39:01;5.75;;;1.73;;
23745;SDS011;12053;48.878;9.632;2023-12-20T11:41:44;5.15;;;1.48;;
23745;SDS011;12053;48.878;9.632;2023-12-20T11:44:17;2.50;;;1.15;;
23745;SDS011;12053;48.878;9.632;2023-12-20T11:47:04;6.13;;;1.42;;
23745;SDS011;12053;48.878;9.632;2023-12-20T11:49:52;8.90;;;2.40;;
23745;SDS011;12053;48.878;9.632;2023-12-20T11:52:37;6.47;;;1.42;;
23745;SDS011;12053;48.878;9.632;2023-12-20T11:55:18;7.13;;;1.70;;
23745;SDS011;12053;48.878;9.632;2023-12-20T11:57:55;9.05;;;1.48;;
23745;SDS011;12053;48.878;9.632;2023-12-20T12:03:17;6.28;;;1.73;;
23745;SDS011;12053;48.878;9.632;2023-12-20T12:06:04;10.27;;;2.72;;
23745;SDS011;12053;48.878;9.632;2023-12-20T12:08:42;6.32;;;1.50;;
23745;SDS011;12053;48.878;9.632;2023-12-20T12:11:23;6.45;;;1.48;;
23745;SDS011;12053;48.878;9.632;2023-12-20T12:14:06;10.27;;;3.15;;
23745;SDS011;12053;48.878;9.632;2023-12-20T12:16:43;5.10;;;1.40;;
23745;SDS011;12053;48.878;9.632;2023-12-20T12:19:28;9.32;;;1.60;;
23745;SDS011;12053;48.878;9.632;2023-12-20T12:22:27;3.78;;;1.55;;
23745;SDS011;12053;48.878;9.632;2023-12-20T12:25:12;4.82;;;1.70;;
23745;SDS011;12053;48.878;9.632;2023-12-20T12:28:01;5.95;;;2.20;;
23745;SDS011;12053;48.878;9.632;2023-12-20T12:30:35;5.80;;;2.15;;
23745;SDS011;12053;48.878;9.632;2023-12-20T12:33:30;3.45;;;1.75;;
23745;SDS011;12053;48.878;9.632;2023-12-20T12:36:08;7.82;;;2.25;;
23745;SDS011;12053;48.878;9.632;2023-12-20T12:38:50;8.05;;;2.20;;
23745;SDS011;12053;48.878;9.632;2023-12-20T12:41:29;6.93;;;2.22;;
23745;SDS011;12053;48.878;9.632;2023-12-20T12:44:19;9.88;;;2.17;;
23745;SDS011;12053;48.878;9.632;2023-12-20T12:47:00;7.95;;;2.42;;
23745;SDS011;12053;48.878;9.632;2023-12-20T12:49:34;5.90;;;2.17;;
23745;SDS011;12053;48.878;9.632;2023-12-20T12:52:05;6.13;;;2.10;;
23745;SDS011;12053;48.878;9.632;2023-12-20T12:54:42;6.28;;;2.10;;
23745;SDS011;12053;48.878;9.632;2023-12-20T12:57:17;10.57;;;2.20;;
23745;SDS011;12053;48.878;9.632;2023-12-20T13:00:04;6.35;;;2.00;;
23745;SDS011;12053;48.878;9.632;2023-12-20T13:02:53;5.55;;;2.13;;
23745;SDS011;12053;48.878;9.632;2023-12-20T13:05:35;11.20;;;2.38;;
23745;SDS011;12053;48.878;9.632;2023-12-20T13:08:19;5.03;;;1.52;;
23745;SDS011;12053;48.878;9.632;2023-12-20T13:11:01;6.05;;;1.73;;
23745;SDS011;12053;48.878;9.632;2023-12-20T13:13:50;7.47;;;2.10;;
23745;SDS011;12053;48.878;9.632;2023-12-20T13:16:18;7.30;;;1.90;;
23745;SDS011;12053;48.878;9.632;2023-12-20T13:18:50;6.40;;;2.35;;
23745;SDS011;12053;48.878;9.632;2023-12-20T13:21:35;8.40;;;1.90;;
23745;SDS011;12053;48.878;9.632;2023-12-20T13:24:16;5.67;;;2.40;;
23745;SDS011;12053;48.878;9.632;2023-12-20T13:27:14;5.40;;;2.33;;
23745;SDS011;12053;48.878;9.632;2023-12-20T13:29:48;7.95;;;2.85;;
23745;SDS011;12053;48.878;9.632;2023-12-20T13:34:55;4.43;;;1.90;;
23745;SDS011;12053;48.878;9.632;2023-12-20T13:37:30;8.48;;;2.10;;
23745;SDS011;12053;48.878;9.632;2023-12-20T13:40:18;10.23;;;2.38;;
23745;SDS011;12053;48.878;9.632;2023-12-20T13:42:56;6.85;;;2.25;;
23745;SDS011;12053;48.878;9.632;2023-12-20T13:45:31;7.72;;;2.72;;
23745;SDS011;12053;48.878;9.632;2023-12-20T13:48:06;6.53;;;2.30;;
23745;SDS011;12053;48.878;9.632;2023-12-20T13:50:58;13.30;;;4.50;;
23745;SDS011;12053;48.878;9.632;2023-12-20T13:53:33;6.40;;;2.63;;
23745;SDS011;12053;48.878;9.632;2023-12-20T13:56:04;6.55;;;2.42;;
23745;SDS011;12053;48.878;9.632;2023-12-20T13:58:46;5.93;;;2.33;;
23745;SDS011;12053;48.878;9.632;2023-12-20T14:01:27;7.95;;;1.90;;
23745;SDS011;12053;48.878;9.632;2023-12-20T14:04:11;5.13;;;2.17;;
23745;SDS011;12053;48.878;9.632;2023-12-20T14:06:59;2.78;;;1.52;;
23745;SDS011;12053;48.878;9.632;2023-12-20T14:09:40;4.25;;;1.83;;
23745;SDS011;12053;48.878;9.632;2023-12-20T14:12:26;5.75;;;2.03;;
23745;SDS011;12053;48.878;9.632;2023-12-20T14:15:15;4.20;;;1.65;;
23745;SDS011;12053;48.878;9.632;2023-12-20T14:17:57;6.45;;;2.03;;
23745;SDS011;12053;48.878;9.632;2023-12-20T14:23:36;3.35;;;1.40;;
23745;SDS011;12053;48.878;9.632;2023-12-20T14:26:25;4.43;;;1.40;;
23745;SDS011;12053;48.878;9.632;2023-12-20T14:29:05;8.20;;;1.88;;
23745;SDS011;12053;48.878;9.632;2023-12-20T14:32:01;9.27;;;1.90;;
23745;SDS011;12053;48.878;9.632;2023-12-20T14:34:51;8.57;;;2.47;;
23745;SDS011;12053;48.878;9.632;2023-12-20T14:37:28;7.43;;;2.17;;
23745;SDS011;12053;48.878;9.632;2023-12-20T14:40:15;5.35;;;2.22;;
23745;SDS011;12053;48.878;9.632;2023-12-20T14:43:18;8.13;;;3.05;;
23745;SDS011;12053;48.878;9.632;2023-12-20T14:46:11;12.60;;;4.40;;
23745;SDS011;12053;48.878;9.632;2023-12-20T14:48:48;8.68;;;3.70;;
23745;SDS011;12053;48.878;9.632;2023-12-20T14:51:35;9.45;;;4.00;;
23745;SDS011;12053;48.878;9.632;2023-12-20T14:57:01;10.85;;;5.28;;
23745;SDS011;12053;48.878;9.632;2023-12-20T14:59:48;13.27;;;4.07;;
23745;SDS011;12053;48.878;9.632;2023-12-20T15:02:36;11.50;;;3.58;;
23745;SDS011;12053;48.878;9.632;2023-12-20T15:05:29;6.07;;;3.72;;
23745;SDS011;12053;48.878;9.632;2023-12-20T15:08:19;9.07;;;3.38;;
23745;SDS011;12053;48.878;9.632;2023-12-20T15:11:00;15.52;;;5.03;;
23745;SDS011;12053;48.878;9.632;2023-12-20T15:13:42;10.48;;;2.58;;
23745;SDS011;12053;48.878;9.632;2023-12-20T15:16:22;14.55;;;4.65;;
23745;SDS011;12053;48.878;9.632;2023-12-20T15:19:12;7.72;;;2.15;;
23745;SDS011;12053;48.878;9.632;2023-12-20T15:21:51;12.23;;;3.72;;